createdAt,value
2019-01-12T00:01:23.829Z,99.00
2019-01-12T00:03:51.346Z,99.00
2019-01-12T00:06:18.885Z,99.10
2019-01-12T00:08:46.411Z,99.20
2019-01-12T00:11:13.893Z,99.10
2019-01-12T00:13:41.386Z,99.00
2019-01-12T00:16:08.930Z,98.90
2019-01-12T00:18:36.411Z,99.20
2019-01-12T00:21:03.889Z,98.80
2019-01-12T00:23:31.463Z,98.70
2019-01-12T00:25:59.041Z,98.60
2019-01-12T00:28:26.512Z,98.60
2019-01-12T00:30:54.029Z,98.50
2019-01-12T00:33:21.518Z,98.40
2019-01-12T00:35:48.997Z,98.40
2019-01-12T00:38:16.513Z,98.40
2019-01-12T00:40:44.003Z,98.60
2019-01-12T00:43:11.493Z,98.70
2019-01-12T00:45:39.009Z,98.80
2019-01-12T00:48:06.493Z,98.60
2019-01-12T00:50:33.989Z,98.60
2019-01-12T00:53:01.545Z,98.70
2019-01-12T00:55:29.036Z,98.80
2019-01-12T00:57:56.521Z,98.70
2019-01-12T01:00:24.076Z,98.70
2019-01-12T01:02:51.573Z,98.80
2019-01-12T01:05:19.048Z,98.90
2019-01-12T01:07:46.580Z,99.10
2019-01-12T01:10:16.763Z,99.40
2019-01-12T01:12:44.241Z,99.30
2019-01-12T01:15:11.897Z,99.20
2019-01-12T01:17:39.388Z,99.20
2019-01-12T01:20:07.801Z,99.40
2019-01-12T01:22:35.325Z,99.20
2019-01-12T01:25:03.501Z,99.10
2019-01-12T01:27:31.033Z,99.10
2019-01-12T01:29:58.562Z,99.00
2019-01-12T01:32:26.041Z,99.00
2019-01-12T01:34:53.544Z,99.00
2019-01-12T01:37:21.027Z,99.50
2019-01-12T01:39:48.521Z,99.00
2019-01-12T01:42:16.043Z,98.90
2019-01-12T01:44:43.583Z,98.90
2019-01-12T01:47:11.069Z,98.90
2019-01-12T01:49:38.582Z,98.90
2019-01-12T01:52:06.064Z,99.10
2019-01-12T01:54:33.536Z,99.10
2019-01-12T01:57:01.061Z,99.20
2019-01-12T01:59:28.547Z,98.80
2019-01-12T02:01:56.164Z,98.80
2019-01-12T02:04:23.665Z,98.50
2019-01-12T02:06:51.151Z,98.60
2019-01-12T02:09:18.641Z,98.20
2019-01-12T02:11:46.121Z,98.20
2019-01-12T02:14:13.647Z,97.80
2019-01-12T02:16:41.139Z,97.70
2019-01-12T02:19:08.614Z,98.00
2019-01-12T02:21:36.133Z,97.90
2019-01-12T02:24:03.792Z,97.80
2019-01-12T02:26:31.278Z,97.80
2019-01-12T02:28:58.769Z,98.00
